sensor_id;sensor_type;location;lat;lon;timestamp;temperature;humidity
41756;DHT22;27435;48.480;9.258;2022-07-10T00:00:38;17.70;93.20
41756;DHT22;27435;48.480;9.258;2022-07-10T00:03:04;17.70;92.50
41756;DHT22;27435;48.480;9.258;2022-07-10T00:05:31;17.60;92.70
41756;DHT22;27435;48.480;9.258;2022-07-10T00:07:57;17.40;94.10
41756;DHT22;27435;48.480;9.258;2022-07-10T00:10:23;17.40;94.00
41756;DHT22;27435;48.480;9.258;2022-07-10T00:12:50;17.40;94.20
41756;DHT22;27435;48.480;9.258;2022-07-10T00:15:17;17.30;94.60
41756;DHT22;27435;48.480;9.258;2022-07-10T00:17:44;17.30;94.60
41756;DHT22;27435;48.480;9.258;2022-07-10T00:20:12;17.30;95.30
41756;DHT22;27435;48.480;9.258;2022-07-10T00:22:38;17.20;95.80
41756;DHT22;27435;48.480;9.258;2022-07-10T00:25:04;17.20;96.90
41756;DHT22;27435;48.480;9.258;2022-07-10T00:27:31;17.10;97.20
41756;DHT22;27435;48.480;9.258;2022-07-10T00:29:57;17.10;97.70
41756;DHT22;27435;48.480;9.258;2022-07-10T00:32:23;17.00;98.00
41756;DHT22;27435;48.480;9.258;2022-07-10T00:34:49;16.90;98.80
41756;DHT22;27435;48.480;9.258;2022-07-10T00:37:15;16.90;99.00
41756;DHT22;27435;48.480;9.258;2022-07-10T00:39:41;16.90;99.00
41756;DHT22;27435;48.480;9.258;2022-07-10T00:42:12;17.00;99.00
41756;DHT22;27435;48.480;9.258;2022-07-10T00:44:39;16.80;99.00
41756;DHT22;27435;48.480;9.258;2022-07-10T00:47:05;16.80;99.00
41756;DHT22;27435;48.480;9.258;2022-07-10T00:49:33;16.80;99.00
41756;DHT22;27435;48.480;9.258;2022-07-10T00:52:01;16.90;99.00
41756;DHT22;27435;48.480;9.258;2022-07-10T00:54:29;16.80;99.00
41756;DHT22;27435;48.480;9.258;2022-07-10T00:56:56;16.80;99.00
41756;DHT22;27435;48.480;9.258;2022-07-10T00:59:22;16.80;99.00
41756;DHT22;27435;48.480;9.258;2022-07-10T01:01:50;16.60;99.00
41756;DHT22;27435;48.480;9.258;2022-07-10T01:04:16;16.50;99.00
41756;DHT22;27435;48.480;9.258;2022-07-10T01:06:41;16.40;99.00
41756;DHT22;27435;48.480;9.258;2022-07-10T01:09:07;16.30;99.00
41756;DHT22;27435;48.480;9.258;2022-07-10T01:11:34;16.20;99.00
41756;DHT22;27435;48.480;9.258;2022-07-10T01:14:00;16.20;99.00
41756;DHT22;27435;48.480;9.258;2022-07-10T01:16:27;16.30;99.00
41756;DHT22;27435;48.480;9.258;2022-07-10T01:18:53;16.30;99.00
41756;DHT22;27435;48.480;9.258;2022-07-10T01:21:42;16.10;99.00
41756;DHT22;27435;48.480;9.258;2022-07-10T01:24:14;15.90;99.00
41756;DHT22;27435;48.480;9.258;2022-07-10T01:26:40;15.50;99.00
41756;DHT22;27435;48.480;9.258;2022-07-10T01:29:10;15.30;99.00
41756;DHT22;27435;48.480;9.258;2022-07-10T01:31:45;15.20;99.00
41756;DHT22;27435;48.480;9.258;2022-07-10T01:34:45;15.10;99.00
41756;DHT22;27435;48.480;9.258;2022-07-10T01:38:13;15.40;99.00
41756;DHT22;27435;48.480;9.258;2022-07-10T01:41:13;15.30;99.00
41756;DHT22;27435;48.480;9.258;2022-07-10T01:43:41;15.10;99.00
41756;DHT22;27435;48.480;9.258;2022-07-10T01:46:26;15.00;99.00
41756;DHT22;27435;48.480;9.258;2022-07-10T01:48:56;15.00;99.00
41756;DHT22;27435;48.480;9.258;2022-07-10T01:51:22;14.90;99.00
41756;DHT22;27435;48.480;9.258;2022-07-10T01:53:48;14.80;99.00
41756;DHT22;27435;48.480;9.258;2022-07-10T01:56:14;14.80;99.00
41756;DHT22;27435;48.480;9.258;2022-07-10T01:58:40;14.80;99.00
41756;DHT22;27435;48.480;9.258;2022-07-10T02:01:06;14.90;99.00
41756;DHT22;27435;48.480;9.258;2022-07-10T02:03:32;15.00;99.00
41756;DHT22;27435;48.480;9.258;2022-07-10T02:06:17;15.00;99.00
41756;DHT22;27435;48.480;9.258;2022-07-10T02:08:43;14.80;99.00
41756;DHT22;27435;48.480;9.258;2022-07-10T02:11:08;14.70;99.00
41756;DHT22;27435;48.480;9.258;2022-07-10T02:13:34;14.60;99.00
41756;DHT22;27435;48.480;9.258;2022-07-10T02:16:00;14.40;99.00
41756;DHT22;27435;48.480;9.258;2022-07-10T02:18:26;14.30;99.00
41756;DHT22;27435;48.480;9.258;2022-07-10T02:20:52;14.30;99.00
41756;DHT22;27435;48.480;9.258;2022-07-10T02:23:18;14.30;99.00
41756;DHT22;27435;48.480;9.258;2022-07-10T02:25:43;14.20;99.00
41756;DHT22;27435;48.480;9.258;2022-07-10T02:28:09;14.20;99.00
41756;DHT22;27435;48.480;9.258;2022-07-10T02:30:36;14.20;99.00
41756;DHT22;27435;48.480;9.258;2022-07-10T02:33:01;14.10;99.00
41756;DHT22;27435;48.480;9.258;2022-07-10T02:35:28;14.10;99.00
41756;DHT22;27435;48.480;9.258;2022-07-10T02:37:53;14.00;99.00
41756;DHT22;27435;48.480;9.258;2022-07-10T02:40:19;14.00;99.00
41756;DHT22;27435;48.480;9.258;2022-07-10T02:42:45;14.00;99.00
41756;DHT22;27435;48.480;9.258;2022-07-10T02:45:11;14.00;99.00
41756;DHT22;27435;48.480;9.258;2022-07-10T02:47:37;14.10;99.00
41756;DHT22;27435;48.480;9.258;2022-07-10T02:50:03;14.10;99.00
41756;DHT22;27435;48.480;9.258;2022-07-10T02:52:29;14.20;99.00
41756;DHT22;27435;48.480;9.258;2022-07-10T02:54:57;14.10;99.00
41756;DHT22;27435;48.480;9.258;2022-07-10T02:57:24;14.00;99.00
41756;DHT22;27435;48.480;9.258;2022-07-10T02:59:50;14.00;99.00
41756;DHT22;27435;48.480;9.258;2022-07-10T03:02:16;14.00;99.00
41756;DHT22;27435;48.480;9.258;2022-07-10T03:04:41;14.00;99.00
41756;DHT22;27435;48.480;9.258;2022-07-10T03:07:07;14.30;99.00
41756;DHT22;27435;48.480;9.258;2022-07-10T03:09:33;14.50;99.00
41756;DHT22;27435;48.480;9.258;2022-07-10T03:11:59;14.80;99.00
41756;DHT22;27435;48.480;9.258;2022-07-10T03:14:25;15.00;99.00
41756;DHT22;27435;48.480;9.258;2022-07-10T03:16:51;15.10;99.00
41756;DHT22;27435;48.480;9.258;2022-07-10T03:19:17;15.20;99.00
41756;DHT22;27435;48.480;9.258;2022-07-10T03:21:42;15.30;99.00
41756;DHT22;27435;48.480;9.258;2022-07-10T03:24:10;15.40;99.00
41756;DHT22;27435;48.480;9.258;2022-07-10T03:26:35;15.40;99.00
41756;DHT22;27435;48.480;9.258;2022-07-10T03:29:01;15.30;99.00
41756;DHT22;27435;48.480;9.258;2022-07-10T03:31:26;15.30;99.00
41756;DHT22;27435;48.480;9.258;2022-07-10T03:33:52;15.30;99.00
41756;DHT22;27435;48.480;9.258;2022-07-10T03:36:18;15.30;99.00
41756;DHT22;27435;48.480;9.258;2022-07-10T03:38:44;15.30;99.00
41756;DHT22;27435;48.480;9.258;2022-07-10T03:41:15;15.20;99.00
41756;DHT22;27435;48.480;9.258;2022-07-10T03:43:40;15.40;99.00
41756;DHT22;27435;48.480;9.258;2022-07-10T03:46:06;15.50;99.00
41756;DHT22;27435;48.480;9.258;2022-07-10T03:48:32;15.60;99.00
41756;DHT22;27435;48.480;9.258;2022-07-10T03:50:59;15.50;99.00
41756;DHT22;27435;48.480;9.258;2022-07-10T03:53:25;15.60;99.00
41756;DHT22;27435;48.480;9.258;2022-07-10T03:55:51;15.60;99.00
41756;DHT22;27435;48.480;9.258;2022-07-10T03:58:16;15.50;99.00
41756;DHT22;27435;48.480;9.258;2022-07-10T04:00:42;15.60;99.00
41756;DHT22;27435;48.480;9.258;2022-07-10T04:03:09;15.50;99.00
41756;DHT22;27435;48.480;9.258;2022-07-10T04:05:35;15.40;99.00
41756;DHT22;27435;48.480;9.258;2022-07-10T04:08:02;15.40;99.00
41756;DHT22;27435;48.480;9.258;2022-07-10T04:10:29;15.50;99.00
41756;DHT22;27435;48.480;9.258;2022-07-10T04:12:55;15.50;99.00
41756;DHT22;27435;48.480;9.258;2022-07-10T04:15:21;15.60;99.00
41756;DHT22;27435;48.480;9.258;2022-07-10T04:17:48;15.70;99.00
41756;DHT22;27435;48.480;9.258;2022-07-10T04:20:14;15.90;99.00
41756;DHT22;27435;48.480;9.258;2022-07-10T04:22:41;15.70;99.00
41756;DHT22;27435;48.480;9.258;2022-07-10T04:25:07;15.60;99.00
41756;DHT22;27435;48.480;9.258;2022-07-10T04:27:33;15.50;99.00
41756;DHT22;27435;48.480;9.258;2022-07-10T04:29:58;15.50;99.00
41756;DHT22;27435;48.480;9.258;2022-07-10T04:32:24;15.50;99.00
41756;DHT22;27435;48.480;9.258;2022-07-10T04:34:50;15.60;99.00
41756;DHT22;27435;48.480;9.258;2022-07-10T04:37:26;15.70;99.00
41756;DHT22;27435;48.480;9.258;2022-07-10T04:39:54;15.70;99.00
41756;DHT22;27435;48.480;9.258;2022-07-10T04:42:24;15.70;99.00
41756;DHT22;27435;48.480;9.258;2022-07-10T04:44:51;15.50;99.00
41756;DHT22;27435;48.480;9.258;2022-07-10T04:47:17;15.50;99.00
41756;DHT22;27435;48.480;9.258;2022-07-10T04:49:44;15.60;99.00
41756;DHT22;27435;48.480;9.258;2022-07-10T04:52:10;15.70;99.00
41756;DHT22;27435;48.480;9.258;2022-07-10T04:54:35;15.70;99.00
41756;DHT22;27435;48.480;9.258;2022-07-10T04:57:01;15.60;99.00
41756;DHT22;27435;48.480;9.258;2022-07-10T04:59:27;15.80;99.00
41756;DHT22;27435;48.480;9.258;2022-07-10T05:01:53;15.80;99.00
41756;DHT22;27435;48.480;9.258;2022-07-10T05:04:19;15.70;99.00
41756;DHT22;27435;48.480;9.258;2022-07-10T05:06:44;15.70;99.00
41756;DHT22;27435;48.480;9.258;2022-07-10T05:09:10;15.70;99.00
41756;DHT22;27435;48.480;9.258;2022-07-10T05:11:36;15.70;99.00
41756;DHT22;27435;48.480;9.258;2022-07-10T05:14:01;15.80;99.00
41756;DHT22;27435;48.480;9.258;2022-07-10T05:16:27;15.80;99.00
41756;DHT22;27435;48.480;9.258;2022-07-10T05:18:53;15.80;99.00
41756;DHT22;27435;48.480;9.258;2022-07-10T05:21:19;15.80;99.00
41756;DHT22;27435;48.480;9.258;2022-07-10T05:23:44;15.80;99.00
41756;DHT22;27435;48.480;9.258;2022-07-10T05:26:10;15.70;99.00
41756;DHT22;27435;48.480;9.258;2022-07-10T05:28:36;15.60;99.00
41756;DHT22;27435;48.480;9.258;2022-07-10T05:31:12;15.60;99.00
41756;DHT22;27435;48.480;9.258;2022-07-10T05:33:55;15.60;99.00
41756;DHT22;27435;48.480;9.258;2022-07-10T05:36:22;15.40;99.00
41756;DHT22;27435;48.480;9.258;2022-07-10T05:38:49;15.40;99.00
41756;DHT22;27435;48.480;9.258;2022-07-10T05:41:15;15.40;99.00
41756;DHT22;27435;48.480;9.258;2022-07-10T05:43:42;15.50;99.00
41756;DHT22;27435;48.480;9.258;2022-07-10T05:46:07;15.80;99.00
41756;DHT22;27435;48.480;9.258;2022-07-10T05:48:33;15.70;99.00
41756;DHT22;27435;48.480;9.258;2022-07-10T05:50:59;15.70;99.00
41756;DHT22;27435;48.480;9.258;2022-07-10T05:53:24;15.60;99.00
41756;DHT22;27435;48.480;9.258;2022-07-10T05:55:50;15.70;99.00
41756;DHT22;27435;48.480;9.258;2022-07-10T05:58:21;15.80;99.00
41756;DHT22;27435;48.480;9.258;2022-07-10T06:00:47;15.70;99.00
41756;DHT22;27435;48.480;9.258;2022-07-10T06:03:15;15.80;99.00
41756;DHT22;27435;48.480;9.258;2022-07-10T06:05:40;15.70;99.00
41756;DHT22;27435;48.480;9.258;2022-07-10T06:08:06;15.70;99.00
41756;DHT22;27435;48.480;9.258;2022-07-10T06:10:32;15.90;99.00
41756;DHT22;27435;48.480;9.258;2022-07-10T06:13:04;15.80;99.00
41756;DHT22;27435;48.480;9.258;2022-07-10T06:15:39;15.80;99.00
41756;DHT22;27435;48.480;9.258;2022-07-10T06:18:06;15.80;99.00
41756;DHT22;27435;48.480;9.258;2022-07-10T06:20:50;15.90;99.00
41756;DHT22;27435;48.480;9.258;2022-07-10T06:23:21;16.00;99.00
41756;DHT22;27435;48.480;9.258;2022-07-10T06:26:12;15.80;99.00
41756;DHT22;27435;48.480;9.258;2022-07-10T06:28:59;15.70;99.00
41756;DHT22;27435;48.480;9.258;2022-07-10T06:31:27;15.80;99.00
41756;DHT22;27435;48.480;9.258;2022-07-10T06:33:54;15.80;99.00
41756;DHT22;27435;48.480;9.258;2022-07-10T06:36:20;15.60;99.00
41756;DHT22;27435;48.480;9.258;2022-07-10T06:38:45;15.70;98.40
41756;DHT22;27435;48.480;9.258;2022-07-10T06:41:12;15.50;97.70
41756;DHT22;27435;48.480;9.258;2022-07-10T06:43:43;15.60;97.80
41756;DHT22;27435;48.480;9.258;2022-07-10T06:46:09;15.60;97.70
41756;DHT22;27435;48.480;9.258;2022-07-10T06:48:35;15.70;97.20
41756;DHT22;27435;48.480;9.258;2022-07-10T06:51:05;15.60;98.10
41756;DHT22;27435;48.480;9.258;2022-07-10T06:53:38;15.70;98.80
41756;DHT22;27435;48.480;9.258;2022-07-10T06:56:08;15.70;99.00
41756;DHT22;27435;48.480;9.258;2022-07-10T06:58:34;15.60;99.00
41756;DHT22;27435;48.480;9.258;2022-07-10T07:01:00;15.60;99.00
41756;DHT22;27435;48.480;9.258;2022-07-10T07:03:25;15.70;98.60
41756;DHT22;27435;48.480;9.258;2022-07-10T07:05:51;15.90;97.10
41756;DHT22;27435;48.480;9.258;2022-07-10T07:08:17;16.10;96.00
41756;DHT22;27435;48.480;9.258;2022-07-10T07:10:42;16.60;94.80
41756;DHT22;27435;48.480;9.258;2022-07-10T07:13:09;17.30;89.60
41756;DHT22;27435;48.480;9.258;2022-07-10T07:15:35;17.30;88.80
41756;DHT22;27435;48.480;9.258;2022-07-10T07:18:04;17.00;88.80
41756;DHT22;27435;48.480;9.258;2022-07-10T07:20:34;16.60;89.60
41756;DHT22;27435;48.480;9.258;2022-07-10T07:23:22;16.50;91.10
41756;DHT22;27435;48.480;9.258;2022-07-10T07:25:48;16.40;91.50
41756;DHT22;27435;48.480;9.258;2022-07-10T07:28:15;16.40;91.40
41756;DHT22;27435;48.480;9.258;2022-07-10T07:30:42;16.60;89.60
41756;DHT22;27435;48.480;9.258;2022-07-10T07:33:08;16.60;87.80
41756;DHT22;27435;48.480;9.258;2022-07-10T07:35:33;16.60;86.00
41756;DHT22;27435;48.480;9.258;2022-07-10T07:38:01;16.70;86.80
41756;DHT22;27435;48.480;9.258;2022-07-10T07:40:27;17.00;85.20
41756;DHT22;27435;48.480;9.258;2022-07-10T07:42:54;17.10;85.00
41756;DHT22;27435;48.480;9.258;2022-07-10T07:45:21;16.90;86.00
41756;DHT22;27435;48.480;9.258;2022-07-10T07:50:20;16.70;86.60
41756;DHT22;27435;48.480;9.258;2022-07-10T07:52:47;16.70;87.20
41756;DHT22;27435;48.480;9.258;2022-07-10T07:55:15;16.90;85.40
41756;DHT22;27435;48.480;9.258;2022-07-10T07:57:51;16.60;85.90
41756;DHT22;27435;48.480;9.258;2022-07-10T08:00:23;16.80;85.60
41756;DHT22;27435;48.480;9.258;2022-07-10T08:02:56;16.90;85.40
41756;DHT22;27435;48.480;9.258;2022-07-10T08:05:25;17.20;84.80
41756;DHT22;27435;48.480;9.258;2022-07-10T08:07:58;17.00;86.40
41756;DHT22;27435;48.480;9.258;2022-07-10T08:10:36;17.00;87.00
41756;DHT22;27435;48.480;9.258;2022-07-10T08:13:02;16.70;88.20
41756;DHT22;27435;48.480;9.258;2022-07-10T08:15:29;17.00;87.40
41756;DHT22;27435;48.480;9.258;2022-07-10T08:17:56;17.00;86.50
41756;DHT22;27435;48.480;9.258;2022-07-10T08:20:24;17.00;86.20
41756;DHT22;27435;48.480;9.258;2022-07-10T08:22:50;16.90;86.40
41756;DHT22;27435;48.480;9.258;2022-07-10T08:25:18;17.40;84.60
41756;DHT22;27435;48.480;9.258;2022-07-10T08:27:44;17.90;83.40
41756;DHT22;27435;48.480;9.258;2022-07-10T08:30:10;18.10;82.50
41756;DHT22;27435;48.480;9.258;2022-07-10T08:32:38;18.20;82.50
41756;DHT22;27435;48.480;9.258;2022-07-10T08:35:05;17.80;81.40
41756;DHT22;27435;48.480;9.258;2022-07-10T08:37:44;17.30;85.10
41756;DHT22;27435;48.480;9.258;2022-07-10T08:40:12;17.60;84.10
41756;DHT22;27435;48.480;9.258;2022-07-10T08:42:42;17.70;83.70
41756;DHT22;27435;48.480;9.258;2022-07-10T08:45:10;18.00;81.50
41756;DHT22;27435;48.480;9.258;2022-07-10T08:47:40;18.00;81.20
41756;DHT22;27435;48.480;9.258;2022-07-10T08:50:15;17.70;82.40
41756;DHT22;27435;48.480;9.258;2022-07-10T08:55:25;18.10;81.20
41756;DHT22;27435;48.480;9.258;2022-07-10T08:57:51;18.40;79.10
41756;DHT22;27435;48.480;9.258;2022-07-10T09:00:18;19.00;76.90
41756;DHT22;27435;48.480;9.258;2022-07-10T09:02:43;18.50;78.00
41756;DHT22;27435;48.480;9.258;2022-07-10T09:05:09;19.00;76.60
41756;DHT22;27435;48.480;9.258;2022-07-10T09:07:38;18.90;76.40
41756;DHT22;27435;48.480;9.258;2022-07-10T09:10:08;19.00;76.80
41756;DHT22;27435;48.480;9.258;2022-07-10T09:12:54;18.80;75.90
41756;DHT22;27435;48.480;9.258;2022-07-10T09:15:22;18.80;76.40
41756;DHT22;27435;48.480;9.258;2022-07-10T09:18:00;18.30;78.00
41756;DHT22;27435;48.480;9.258;2022-07-10T09:20:34;18.10;79.30
41756;DHT22;27435;48.480;9.258;2022-07-10T09:23:19;17.70;81.20
41756;DHT22;27435;48.480;9.258;2022-07-10T09:25:47;17.60;81.80
41756;DHT22;27435;48.480;9.258;2022-07-10T09:28:17;17.70;81.40
41756;DHT22;27435;48.480;9.258;2022-07-10T09:30:43;18.40;79.80
41756;DHT22;27435;48.480;9.258;2022-07-10T09:33:26;18.70;77.80
41756;DHT22;27435;48.480;9.258;2022-07-10T09:36:10;19.00;75.90
41756;DHT22;27435;48.480;9.258;2022-07-10T09:41:24;18.50;76.70
41756;DHT22;27435;48.480;9.258;2022-07-10T09:46:23;18.10;78.10
41756;DHT22;27435;48.480;9.258;2022-07-10T09:49:11;18.60;77.00
41756;DHT22;27435;48.480;9.258;2022-07-10T09:51:44;19.00;74.60
41756;DHT22;27435;48.480;9.258;2022-07-10T09:54:11;18.70;75.30
41756;DHT22;27435;48.480;9.258;2022-07-10T09:56:44;18.70;74.10
41756;DHT22;27435;48.480;9.258;2022-07-10T09:59:17;18.30;74.20
41756;DHT22;27435;48.480;9.258;2022-07-10T10:01:50;18.20;73.50
41756;DHT22;27435;48.480;9.258;2022-07-10T10:04:21;18.50;74.00
41756;DHT22;27435;48.480;9.258;2022-07-10T10:06:56;19.10;72.70
41756;DHT22;27435;48.480;9.258;2022-07-10T10:09:24;19.50;71.40
41756;DHT22;27435;48.480;9.258;2022-07-10T10:11:57;19.40;71.60
41756;DHT22;27435;48.480;9.258;2022-07-10T10:14:27;19.20;71.60
41756;DHT22;27435;48.480;9.258;2022-07-10T10:16:55;19.10;71.00
41756;DHT22;27435;48.480;9.258;2022-07-10T10:19:23;18.90;71.90
41756;DHT22;27435;48.480;9.258;2022-07-10T10:22:08;18.70;71.70
41756;DHT22;27435;48.480;9.258;2022-07-10T10:24:38;18.30;72.70
41756;DHT22;27435;48.480;9.258;2022-07-10T10:27:05;18.40;73.20
41756;DHT22;27435;48.480;9.258;2022-07-10T10:29:32;18.50;72.70
41756;DHT22;27435;48.480;9.258;2022-07-10T10:32:01;18.70;72.20
41756;DHT22;27435;48.480;9.258;2022-07-10T10:34:47;18.70;72.70
41756;DHT22;27435;48.480;9.258;2022-07-10T10:37:51;19.10;69.90
41756;DHT22;27435;48.480;9.258;2022-07-10T10:40:36;19.70;69.10
41756;DHT22;27435;48.480;9.258;2022-07-10T10:43:22;19.90;69.30
41756;DHT22;27435;48.480;9.258;2022-07-10T10:45:51;20.40;65.70
41756;DHT22;27435;48.480;9.258;2022-07-10T10:48:19;20.10;67.10
41756;DHT22;27435;48.480;9.258;2022-07-10T10:50:53;20.00;66.50
41756;DHT22;27435;48.480;9.258;2022-07-10T10:53:24;19.70;68.30
41756;DHT22;27435;48.480;9.258;2022-07-10T10:58:37;19.60;66.40
41756;DHT22;27435;48.480;9.258;2022-07-10T11:06:39;19.40;66.40
41756;DHT22;27435;48.480;9.258;2022-07-10T11:09:30;19.30;67.00
41756;DHT22;27435;48.480;9.258;2022-07-10T11:12:06;19.30;66.40
41756;DHT22;27435;48.480;9.258;2022-07-10T11:14:45;19.40;64.30
41756;DHT22;27435;48.480;9.258;2022-07-10T11:17:13;19.20;65.20
41756;DHT22;27435;48.480;9.258;2022-07-10T11:19:39;19.40;63.90
41756;DHT22;27435;48.480;9.258;2022-07-10T11:30:21;19.20;67.20
41756;DHT22;27435;48.480;9.258;2022-07-10T11:32:47;19.30;67.50
41756;DHT22;27435;48.480;9.258;2022-07-10T11:35:14;19.40;66.70
41756;DHT22;27435;48.480;9.258;2022-07-10T11:37:58;19.60;65.50
41756;DHT22;27435;48.480;9.258;2022-07-10T11:40:23;19.70;64.40
41756;DHT22;27435;48.480;9.258;2022-07-10T11:42:54;20.10;64.00
41756;DHT22;27435;48.480;9.258;2022-07-10T11:45:33;19.90;62.80
41756;DHT22;27435;48.480;9.258;2022-07-10T11:48:03;20.10;63.50
41756;DHT22;27435;48.480;9.258;2022-07-10T11:50:35;20.10;63.50
41756;DHT22;27435;48.480;9.258;2022-07-10T11:53:02;20.00;63.40
41756;DHT22;27435;48.480;9.258;2022-07-10T11:55:29;20.20;62.80
41756;DHT22;27435;48.480;9.258;2022-07-10T11:57:57;20.30;61.40
41756;DHT22;27435;48.480;9.258;2022-07-10T12:00:26;20.30;63.90
41756;DHT22;27435;48.480;9.258;2022-07-10T12:02:53;19.50;65.50
41756;DHT22;27435;48.480;9.258;2022-07-10T12:07:59;19.30;67.50
41756;DHT22;27435;48.480;9.258;2022-07-10T12:10:30;19.50;66.80
41756;DHT22;27435;48.480;9.258;2022-07-10T12:13:15;19.60;66.00
41756;DHT22;27435;48.480;9.258;2022-07-10T12:15:42;19.70;65.60
41756;DHT22;27435;48.480;9.258;2022-07-10T12:18:15;20.10;65.00
41756;DHT22;27435;48.480;9.258;2022-07-10T12:20:42;20.70;63.20
41756;DHT22;27435;48.480;9.258;2022-07-10T12:23:11;20.60;62.90
41756;DHT22;27435;48.480;9.258;2022-07-10T12:25:40;20.30;62.50
41756;DHT22;27435;48.480;9.258;2022-07-10T12:28:06;20.50;63.60
41756;DHT22;27435;48.480;9.258;2022-07-10T12:30:46;20.60;64.00
41756;DHT22;27435;48.480;9.258;2022-07-10T12:33:14;20.60;62.30
41756;DHT22;27435;48.480;9.258;2022-07-10T12:38:24;20.80;61.00
41756;DHT22;27435;48.480;9.258;2022-07-10T12:40:50;20.90;61.70
41756;DHT22;27435;48.480;9.258;2022-07-10T12:43:26;21.20;61.30
41756;DHT22;27435;48.480;9.258;2022-07-10T12:46:28;20.90;62.60
41756;DHT22;27435;48.480;9.258;2022-07-10T12:49:07;20.90;62.00
41756;DHT22;27435;48.480;9.258;2022-07-10T12:51:45;21.20;61.70
41756;DHT22;27435;48.480;9.258;2022-07-10T12:54:35;21.20;59.40
41756;DHT22;27435;48.480;9.258;2022-07-10T12:57:02;21.60;60.00
41756;DHT22;27435;48.480;9.258;2022-07-10T12:59:33;21.20;61.50
41756;DHT22;27435;48.480;9.258;2022-07-10T13:02:14;21.10;61.60
41756;DHT22;27435;48.480;9.258;2022-07-10T13:04:57;20.50;62.80
41756;DHT22;27435;48.480;9.258;2022-07-10T13:07:31;21.00;61.30
41756;DHT22;27435;48.480;9.258;2022-07-10T13:09:59;21.30;60.80
41756;DHT22;27435;48.480;9.258;2022-07-10T13:12:26;21.60;60.10
41756;DHT22;27435;48.480;9.258;2022-07-10T13:14:52;21.40;60.60
41756;DHT22;27435;48.480;9.258;2022-07-10T13:17:17;21.70;61.30
41756;DHT22;27435;48.480;9.258;2022-07-10T13:19:43;21.60;58.30
41756;DHT22;27435;48.480;9.258;2022-07-10T13:22:09;21.40;59.60
41756;DHT22;27435;48.480;9.258;2022-07-10T13:24:34;21.70;59.10
41756;DHT22;27435;48.480;9.258;2022-07-10T13:27:00;21.70;58.50
41756;DHT22;27435;48.480;9.258;2022-07-10T13:29:25;20.80;60.20
41756;DHT22;27435;48.480;9.258;2022-07-10T13:31:51;21.40;59.60
41756;DHT22;27435;48.480;9.258;2022-07-10T13:34:17;22.20;56.60
41756;DHT22;27435;48.480;9.258;2022-07-10T13:36:42;21.80;57.40
41756;DHT22;27435;48.480;9.258;2022-07-10T13:39:08;21.40;58.20
41756;DHT22;27435;48.480;9.258;2022-07-10T13:41:34;21.10;58.30
41756;DHT22;27435;48.480;9.258;2022-07-10T13:44:03;21.50;57.80
41756;DHT22;27435;48.480;9.258;2022-07-10T13:46:29;21.90;56.30
41756;DHT22;27435;48.480;9.258;2022-07-10T13:48:55;22.00;56.60
41756;DHT22;27435;48.480;9.258;2022-07-10T13:51:22;22.20;56.90
41756;DHT22;27435;48.480;9.258;2022-07-10T13:53:47;21.80;56.90
41756;DHT22;27435;48.480;9.258;2022-07-10T13:56:13;21.90;57.50
41756;DHT22;27435;48.480;9.258;2022-07-10T13:58:39;22.10;55.40
41756;DHT22;27435;48.480;9.258;2022-07-10T14:01:04;22.40;55.20
41756;DHT22;27435;48.480;9.258;2022-07-10T14:03:31;22.10;54.80
41756;DHT22;27435;48.480;9.258;2022-07-10T14:05:57;22.10;55.00
41756;DHT22;27435;48.480;9.258;2022-07-10T14:08:24;21.80;54.90
41756;DHT22;27435;48.480;9.258;2022-07-10T14:10:50;22.10;54.80
41756;DHT22;27435;48.480;9.258;2022-07-10T14:13:16;22.00;54.50
41756;DHT22;27435;48.480;9.258;2022-07-10T14:15:41;22.70;52.60
41756;DHT22;27435;48.480;9.258;2022-07-10T14:18:10;22.50;52.60
41756;DHT22;27435;48.480;9.258;2022-07-10T14:20:36;22.50;53.30
41756;DHT22;27435;48.480;9.258;2022-07-10T14:23:20;22.80;52.50
41756;DHT22;27435;48.480;9.258;2022-07-10T14:25:46;22.70;52.20
41756;DHT22;27435;48.480;9.258;2022-07-10T14:28:12;22.80;51.60
41756;DHT22;27435;48.480;9.258;2022-07-10T14:30:42;23.30;50.40
41756;DHT22;27435;48.480;9.258;2022-07-10T14:33:09;22.70;51.30
41756;DHT22;27435;48.480;9.258;2022-07-10T14:35:34;23.60;50.10
41756;DHT22;27435;48.480;9.258;2022-07-10T14:38:00;23.70;49.30
41756;DHT22;27435;48.480;9.258;2022-07-10T14:40:26;23.80;50.20
41756;DHT22;27435;48.480;9.258;2022-07-10T14:42:51;23.90;49.30
41756;DHT22;27435;48.480;9.258;2022-07-10T14:45:18;23.70;49.90
41756;DHT22;27435;48.480;9.258;2022-07-10T14:47:44;23.70;50.10
41756;DHT22;27435;48.480;9.258;2022-07-10T14:50:09;23.10;51.20
41756;DHT22;27435;48.480;9.258;2022-07-10T14:52:35;23.40;50.60
41756;DHT22;27435;48.480;9.258;2022-07-10T14:55:03;24.10;50.20
41756;DHT22;27435;48.480;9.258;2022-07-10T14:57:31;23.50;50.70
41756;DHT22;27435;48.480;9.258;2022-07-10T14:59:57;22.10;52.50
41756;DHT22;27435;48.480;9.258;2022-07-10T15:02:23;21.90;53.40
41756;DHT22;27435;48.480;9.258;2022-07-10T15:04:48;22.70;53.40
41756;DHT22;27435;48.480;9.258;2022-07-10T15:07:14;23.00;51.00
41756;DHT22;27435;48.480;9.258;2022-07-10T15:09:46;22.50;52.10
41756;DHT22;27435;48.480;9.258;2022-07-10T15:12:12;22.40;53.00
41756;DHT22;27435;48.480;9.258;2022-07-10T15:14:37;22.10;53.30
41756;DHT22;27435;48.480;9.258;2022-07-10T15:17:03;22.80;52.20
41756;DHT22;27435;48.480;9.258;2022-07-10T15:19:29;23.40;51.10
41756;DHT22;27435;48.480;9.258;2022-07-10T15:21:55;23.40;50.80
41756;DHT22;27435;48.480;9.258;2022-07-10T15:24:21;23.60;50.90
41756;DHT22;27435;48.480;9.258;2022-07-10T15:26:47;24.20;50.00
41756;DHT22;27435;48.480;9.258;2022-07-10T15:29:13;23.90;50.40
41756;DHT22;27435;48.480;9.258;2022-07-10T15:31:39;23.50;51.40
41756;DHT22;27435;48.480;9.258;2022-07-10T15:34:09;23.80;50.50
41756;DHT22;27435;48.480;9.258;2022-07-10T15:36:35;24.20;49.70
41756;DHT22;27435;48.480;9.258;2022-07-10T15:39:01;24.60;49.60
41756;DHT22;27435;48.480;9.258;2022-07-10T15:41:27;24.00;50.40
41756;DHT22;27435;48.480;9.258;2022-07-10T15:43:53;23.50;51.00
41756;DHT22;27435;48.480;9.258;2022-07-10T15:46:18;23.00;52.00
41756;DHT22;27435;48.480;9.258;2022-07-10T15:48:44;23.30;51.90
41756;DHT22;27435;48.480;9.258;2022-07-10T15:51:10;24.20;51.50
41756;DHT22;27435;48.480;9.258;2022-07-10T15:53:36;24.70;50.30
41756;DHT22;27435;48.480;9.258;2022-07-10T15:56:03;25.00;49.40
41756;DHT22;27435;48.480;9.258;2022-07-10T15:58:29;24.80;49.30
41756;DHT22;27435;48.480;9.258;2022-07-10T16:00:55;24.20;49.60
41756;DHT22;27435;48.480;9.258;2022-07-10T16:03:20;23.90;50.00
41756;DHT22;27435;48.480;9.258;2022-07-10T16:05:46;23.80;50.20
41756;DHT22;27435;48.480;9.258;2022-07-10T16:08:12;24.70;48.80
41756;DHT22;27435;48.480;9.258;2022-07-10T16:10:38;24.80;48.80
41756;DHT22;27435;48.480;9.258;2022-07-10T16:13:04;23.80;50.80